createdAt,value
2018-09-05T00:01:53.728Z,99.90
2018-09-05T00:04:25.313Z,99.90
2018-09-05T00:06:55.397Z,99.90
2018-09-05T00:09:25.622Z,99.90
2018-09-05T00:11:55.802Z,99.90
2018-09-05T00:14:26.527Z,99.90
2018-09-05T00:16:56.715Z,99.90
2018-09-05T00:19:26.838Z,99.90
2018-09-05T00:21:57.310Z,99.90
2018-09-05T00:24:27.509Z,99.90
2018-09-05T00:26:57.606Z,99.90
2018-09-05T00:29:28.373Z,99.90
2018-09-05T00:31:59.252Z,99.90
2018-09-05T00:34:29.770Z,99.90
2018-09-05T00:37:00.070Z,99.90
2018-09-05T00:42:00.228Z,99.90
2018-09-05T00:44:30.554Z,99.90
2018-09-05T00:47:01.088Z,99.90
2018-09-05T00:49:31.566Z,99.90
2018-09-05T00:52:01.857Z,99.90
2018-09-05T00:54:31.979Z,99.90
2018-09-05T00:57:02.409Z,99.90
2018-09-05T00:59:32.587Z,99.90
2018-09-05T01:02:03.605Z,99.90
2018-09-05T01:04:33.925Z,99.90
2018-09-05T01:07:13.502Z,99.90
2018-09-05T01:09:43.675Z,99.90
2018-09-05T01:12:13.770Z,99.90
2018-09-05T01:14:44.249Z,99.90
2018-09-05T01:19:45.453Z,99.90
2018-09-05T01:22:15.616Z,99.90
2018-09-05T01:24:46.723Z,99.90
2018-09-05T01:27:17.200Z,99.90
2018-09-05T01:32:17.383Z,99.90
2018-09-05T01:34:47.862Z,99.90
2018-09-05T01:39:47.737Z,99.90
2018-09-05T01:42:17.816Z,99.90
2018-09-05T01:44:48.170Z,99.90
2018-09-05T01:47:18.538Z,99.90
2018-09-05T01:49:48.738Z,99.90
2018-09-05T01:52:19.205Z,99.90
2018-09-05T01:54:49.623Z,99.90
2018-09-05T01:57:19.779Z,99.90
2018-09-05T01:59:50.201Z,99.90
2018-09-05T02:02:20.744Z,99.90
2018-09-05T02:04:50.954Z,99.90
2018-09-05T02:07:22.769Z,99.90
2018-09-05T02:09:53.430Z,99.90
2018-09-05T02:12:23.611Z,99.90
2018-09-05T02:14:54.024Z,99.90
2018-09-05T02:17:24.122Z,99.90
2018-09-05T02:19:55.326Z,99.90
2018-09-05T02:22:29.011Z,99.90
2018-09-05T02:24:59.623Z,99.90
2018-09-05T02:27:30.806Z,99.90
2018-09-05T02:30:01.958Z,99.90
2018-09-05T02:32:32.013Z,99.90
2018-09-05T02:35:02.628Z,99.90
2018-09-05T02:37:33.353Z,99.90
2018-09-05T02:40:05.647Z,99.90
2018-09-05T02:42:38.595Z,99.90
2018-09-05T02:45:11.482Z,99.90
2018-09-05T02:47:41.570Z,99.90
2018-09-05T02:50:12.385Z,99.90
2018-09-05T02:52:42.510Z,99.90
2018-09-05T02:55:16.746Z,99.90
2018-09-05T02:57:46.832Z,99.90
2018-09-05T03:00:17.043Z,99.90
2018-09-05T03:02:47.188Z,99.90
2018-09-05T03:05:17.330Z,99.90
2018-09-05T03:07:47.830Z,99.90
2018-09-05T03:10:17.950Z,99.90
2018-09-05T03:12:48.097Z,99.90
2018-09-05T03:15:18.363Z,99.90
2018-09-05T03:17:48.458Z,99.90
2018-09-05T03:20:18.659Z,99.90
2018-09-05T03:22:48.853Z,99.90
2018-09-05T03:25:19.049Z,99.90
2018-09-05T03:27:49.291Z,99.90
2018-09-05T03:30:19.462Z,99.90
2018-09-05T03:32:49.709Z,99.90
2018-09-05T03:35:19.814Z,99.90
2018-09-05T03:37:50.482Z,99.90
2018-09-05T03:40:20.593Z,99.90
2018-09-05T03:42:51.110Z,99.90
2018-09-05T03:45:21.750Z,99.90
2018-09-05T03:47:52.217Z,99.90
2018-09-05T03:50:22.387Z,99.90
2018-09-05T03:52:52.940Z,99.90
2018-09-05T03:55:23.060Z,99.90
2018-09-05T03:57:53.214Z,99.90
2018-09-05T04:00:23.422Z,99.90
2018-09-05T04:02:53.951Z,99.90
2018-09-05T04:05:24.137Z,99.90
2018-09-05T04:07:54.277Z,99.90
2018-09-05T04:10:24.430Z,99.90
2018-09-05T04:12:54.655Z,99.90
2018-09-05T04:17:54.791Z,99.90
2018-09-05T04:20:24.940Z,99.90
2018-09-05T04:22:55.107Z,99.90
2018-09-05T04:25:25.274Z,99.90
2018-09-05T04:27:55.451Z,99.90
2018-09-05T04:30:25.711Z,99.90
2018-09-05T04:32:56.287Z,99.90
2018-09-05T04:35:26.735Z,99.90
2018-09-05T04:37:56.929Z,99.90
2018-09-05T04:40:27.443Z,99.90
2018-09-05T04:42:57.868Z,99.90
2018-09-05T04:45:28.243Z,99.90
2018-09-05T04:47:58.426Z,99.90
2018-09-05T04:50:29.110Z,99.90
2018-09-05T04:52:59.429Z,99.90
2018-09-05T04:57:59.439Z,99.90
2018-09-05T05:00:29.681Z,99.90
2018-09-05T05:05:30.101Z,99.90
2018-09-05T05:08:00.290Z,99.90
2018-09-05T05:10:30.555Z,99.90
2018-09-05T05:13:00.750Z,99.90
2018-09-05T05:15:30.942Z,99.90
2018-09-05T05:18:01.295Z,99.90
2018-09-05T05:20:31.436Z,99.90
2018-09-05T05:23:01.918Z,99.90
2018-09-05T05:25:32.070Z,99.90
2018-09-05T05:28:02.485Z,99.90
2018-09-05T05:30:33.434Z,99.90
2018-09-05T05:33:04.537Z,99.90
2018-09-05T05:35:35.058Z,99.90
2018-09-05T05:38:05.574Z,99.90
2018-09-05T05:40:36.026Z,99.90
2018-09-05T05:43:06.758Z,99.90
2018-09-05T05:45:37.445Z,99.90
2018-09-05T05:48:07.781Z,99.90
2018-09-05T05:50:38.248Z,99.90
2018-09-05T05:53:08.567Z,99.90
2018-09-05T05:55:39.007Z,99.90
2018-09-05T05:58:09.398Z,99.90
2018-09-05T06:00:39.879Z,99.90
2018-09-05T06:03:10.346Z,99.90
2018-09-05T06:08:10.490Z,99.90
2018-09-05T06:10:40.692Z,99.90
2018-09-05T06:15:40.745Z,99.90
2018-09-05T06:18:11.090Z,99.90
2018-09-05T06:20:41.486Z,99.90
2018-09-05T06:23:15.220Z,99.90
2018-09-05T06:25:45.830Z,99.90
2018-09-05T06:30:46.006Z,99.90
2018-09-05T06:35:45.919Z,99.90
2018-09-05T06:38:16.450Z,99.90
2018-09-05T06:40:46.982Z,99.90
2018-09-05T06:43:17.257Z,99.90
2018-09-05T06:45:47.621Z,99.90
2018-09-05T06:48:18.150Z,99.90
2018-09-05T06:50:53.841Z,99.90
2018-09-05T06:53:24.318Z,99.90
2018-09-05T06:55:54.665Z,99.90
2018-09-05T06:58:25.254Z,99.90
2018-09-05T07:00:56.186Z,99.90
2018-09-05T07:05:56.601Z,99.90
2018-09-05T07:08:26.978Z,99.90
2018-09-05T07:10:57.533Z,99.90
2018-09-05T07:13:28.013Z,99.90
2018-09-05T07:21:05.686Z,99.90
2018-09-05T07:23:28.669Z,99.90
2018-09-05T07:25:59.624Z,99.90
2018-09-05T07:28:30.343Z,99.90
2018-09-05T07:31:00.879Z,99.90
2018-09-05T07:33:31.189Z,99.90
2018-09-05T07:36:07.062Z,99.90
2018-09-05T07:38:37.518Z,99.90
2018-09-05T07:41:09.312Z,99.90
2018-09-05T07:43:39.764Z,99.90
2018-09-05T07:46:10.129Z,99.90
2018-09-05T07:48:40.620Z,99.90
2018-09-05T07:51:11.377Z,99.90
2018-09-05T07:56:11.484Z,99.90
2018-09-05T07:58:41.936Z,99.90
2018-09-05T08:03:41.999Z,99.90
2018-09-05T08:06:12.301Z,99.90
2018-09-05T08:08:42.710Z,99.90
2018-09-05T08:11:13.240Z,99.90
2018-09-05T08:13:43.553Z,99.90
2018-09-05T08:16:13.910Z,99.90
2018-09-05T08:18:44.342Z,99.90
2018-09-05T08:21:15.130Z,99.90
2018-09-05T08:23:45.578Z,99.90
2018-09-05T08:26:15.998Z,99.90
2018-09-05T08:28:46.431Z,99.90
2018-09-05T08:31:16.902Z,99.90
2018-09-05T08:33:47.182Z,99.90
2018-09-05T08:38:47.249Z,99.90
2018-09-05T08:41:17.689Z,99.90
2018-09-05T08:43:48.344Z,99.90
2018-09-05T08:46:18.616Z,99.90
2018-09-05T08:48:49.017Z,99.90
2018-09-05T08:51:20.564Z,99.90
2018-09-05T08:53:51.186Z,99.90
2018-09-05T08:56:21.592Z,99.90
2018-09-05T08:58:51.941Z,99.90
2018-09-05T09:01:22.454Z,99.90
2018-09-05T09:03:52.898Z,99.90
2018-09-05T09:06:23.311Z,99.90
2018-09-05T09:08:54.621Z,99.90
2018-09-05T09:11:25.538Z,99.90
2018-09-05T09:13:55.921Z,99.90
2018-09-05T09:16:26.322Z,99.90
2018-09-05T09:18:56.673Z,99.90
2018-09-05T09:21:27.093Z,99.90
2018-09-05T09:23:57.341Z,99.90
2018-09-05T09:26:27.708Z,99.90
2018-09-05T09:28:58.612Z,99.90
2018-09-05T09:36:28.498Z,99.90
2018-09-05T09:38:58.642Z,99.60
2018-09-05T09:41:29.046Z,99.50
2018-09-05T09:44:00.286Z,99.10
2018-09-05T09:46:30.936Z,98.30
2018-09-05T09:49:01.379Z,98.00
2018-09-05T09:51:32.430Z,97.30
2018-09-05T09:54:02.870Z,97.30
2018-09-05T09:59:02.968Z,97.60
2018-09-05T10:01:38.430Z,96.80
2018-09-05T10:04:13.825Z,97.10
2018-09-05T10:06:48.304Z,96.60
2018-09-05T10:09:23.901Z,96.40
2018-09-05T10:11:59.393Z,95.30
2018-09-05T10:14:33.053Z,95.10
2018-09-05T10:17:08.519Z,95.00
2018-09-05T10:19:39.585Z,94.30
2018-09-05T10:22:10.102Z,94.60
2018-09-05T10:24:40.476Z,92.10
2018-09-05T10:27:10.894Z,92.70
2018-09-05T10:29:41.196Z,93.10
2018-09-05T10:32:12.394Z,93.10
2018-09-05T10:34:42.577Z,92.00
2018-09-05T10:37:13.554Z,92.10
2018-09-05T10:39:44.017Z,91.40
2018-09-05T10:42:15.138Z,91.10
2018-09-05T10:44:45.589Z,91.80
2018-09-05T10:47:16.025Z,92.10
2018-09-05T10:52:16.098Z,92.30
2018-09-05T10:54:46.365Z,91.70
2018-09-05T10:57:16.853Z,91.60
2018-09-05T10:59:47.222Z,92.50
2018-09-05T11:02:17.701Z,93.70
2018-09-05T11:04:48.190Z,92.30
2018-09-05T11:07:18.632Z,92.30
2018-09-05T11:12:18.869Z,91.30
2018-09-05T11:14:49.286Z,92.00
2018-09-05T11:19:49.254Z,91.40
2018-09-05T11:22:19.790Z,90.50
2018-09-05T11:24:50.129Z,90.40
2018-09-05T11:27:20.737Z,89.10
2018-09-05T11:29:51.057Z,90.40
2018-09-05T11:32:21.706Z,88.50
2018-09-05T11:34:52.491Z,89.40
2018-09-05T11:37:22.852Z,89.40
2018-09-05T11:39:53.214Z,88.90
2018-09-05T11:42:23.589Z,86.80
2018-09-05T11:44:54.247Z,89.10
2018-09-05T11:47:24.745Z,87.80
2018-09-05T11:49:55.149Z,87.70
2018-09-05T11:52:25.611Z,86.70
2018-09-05T11:54:55.951Z,85.30
2018-09-05T11:57:26.407Z,81.20
2018-09-05T11:59:56.886Z,81.60
2018-09-05T12:02:27.410Z,80.00
2018-09-05T12:04:57.862Z,82.40
2018-09-05T12:07:28.342Z,80.30
2018-09-05T12:12:28.280Z,79.20
2018-09-05T12:14:58.670Z,78.90
2018-09-05T12:17:29.668Z,77.60
2018-09-05T12:20:00.086Z,76.20
2018-09-05T12:22:30.533Z,79.20
2018-09-05T12:25:00.851Z,77.40
2018-09-05T12:27:31.391Z,78.20
2018-09-05T12:30:01.766Z,74.80
2018-09-05T12:35:01.565Z,71.90
2018-09-05T12:37:31.886Z,72.90
2018-09-05T12:40:02.213Z,76.50
2018-09-05T12:42:32.703Z,79.30
2018-09-05T12:45:03.142Z,78.10
2018-09-05T12:47:33.675Z,74.30
2018-09-05T12:50:04.156Z,74.10
2018-09-05T12:52:34.601Z,72.60
2018-09-05T12:55:05.144Z,72.40
2018-09-05T12:57:35.541Z,72.70
2018-09-05T13:02:35.586Z,73.60
2018-09-05T13:05:08.267Z,70.10
2018-09-05T13:07:38.819Z,69.10
2018-09-05T13:10:09.310Z,64.00
2018-09-05T13:12:40.069Z,63.00
2018-09-05T13:15:10.754Z,62.20
2018-09-05T13:17:41.244Z,62.00
2018-09-05T13:20:11.573Z,61.20
2018-09-05T13:22:42.042Z,60.00
2018-09-05T13:25:12.581Z,61.20
2018-09-05T13:27:43.019Z,60.70
2018-09-05T13:32:42.564Z,59.80
2018-09-05T13:35:13.025Z,60.70
2018-09-05T13:37:43.468Z,60.90
2018-09-05T13:40:13.960Z,60.60
2018-09-05T13:42:54.261Z,59.10
2018-09-05T13:45:24.457Z,59.80
2018-09-05T13:47:54.754Z,58.70
2018-09-05T13:50:25.074Z,59.60
2018-09-05T13:52:55.697Z,59.30
2018-09-05T13:55:25.812Z,59.30
2018-09-05T13:57:55.873Z,61.00
2018-09-05T14:00:26.008Z,58.90
2018-09-05T14:02:56.153Z,58.90
2018-09-05T14:07:55.661Z,60.30
2018-09-05T14:17:54.925Z,58.30
2018-09-05T14:20:25.630Z,56.60
2018-09-05T14:22:56.006Z,58.60
2018-09-05T14:25:26.753Z,60.10
2018-09-05T14:27:57.359Z,60.20
2018-09-05T14:30:27.794Z,60.50
2018-09-05T14:32:57.878Z,58.00
2018-09-05T14:37:57.390Z,58.60
2018-09-05T14:42:57.674Z,61.80
2018-09-05T14:45:28.220Z,61.10
2018-09-05T14:47:58.528Z,60.80
2018-09-05T14:50:29.056Z,61.90
2018-09-05T14:52:59.447Z,62.20
2018-09-05T14:57:59.454Z,61.50
2018-09-05T15:00:29.652Z,61.60
2018-09-05T15:03:00.031Z,60.20
2018-09-05T15:10:29.934Z,58.10
2018-09-05T15:13:00.070Z,58.70
2018-09-05T15:15:30.524Z,58.90
2018-09-05T15:20:30.711Z,59.40
2018-09-05T15:23:01.220Z,58.90
2018-09-05T15:25:31.329Z,59.00
2018-09-05T15:28:01.577Z,59.10
2018-09-05T15:30:31.885Z,59.20
2018-09-05T15:33:02.064Z,58.80
2018-09-05T15:35:32.174Z,58.00
2018-09-05T15:38:02.578Z,58.00
2018-09-05T15:40:33.124Z,58.20
2018-09-05T15:43:03.569Z,58.80
2018-09-05T15:45:33.997Z,60.00
2018-09-05T15:50:33.930Z,62.00
2018-09-05T15:53:04.053Z,61.90
2018-09-05T15:58:04.235Z,63.60
2018-09-05T16:00:34.820Z,66.30
2018-09-05T16:03:05.390Z,67.90
2018-09-05T16:05:36.036Z,68.50
2018-09-05T16:08:06.835Z,69.90
2018-09-05T16:10:37.723Z,71.30
2018-09-05T16:13:08.215Z,72.90
2018-09-05T16:15:38.824Z,74.40
2018-09-05T16:18:09.180Z,74.90
2018-09-05T16:20:39.888Z,75.20
2018-09-05T16:23:10.005Z,75.80
2018-09-05T16:25:40.341Z,77.40
2018-09-05T16:28:11.075Z,77.80
2018-09-05T16:30:41.597Z,79.40
2018-09-05T16:33:11.866Z,78.00
2018-09-05T16:35:42.389Z,77.40
2018-09-05T16:38:12.649Z,75.50
2018-09-05T16:40:43.067Z,73.60
2018-09-05T16:43:13.195Z,72.70
2018-09-05T16:48:13.257Z,70.60
2018-09-05T16:50:43.310Z,70.00
2018-09-05T16:53:13.946Z,70.00
2018-09-05T16:55:44.035Z,70.50
2018-09-05T16:58:14.598Z,72.70
2018-09-05T17:00:45.079Z,74.90
2018-09-05T17:03:15.594Z,77.50
2018-09-05T17:05:45.761Z,78.50
2018-09-05T17:08:16.098Z,79.70
2018-09-05T17:10:46.580Z,80.70
2018-09-05T17:13:17.131Z,82.00
2018-09-05T17:15:47.435Z,82.70
2018-09-05T17:18:17.873Z,84.00
2018-09-05T17:20:48.289Z,85.50
2018-09-05T17:23:18.594Z,86.70
2018-09-05T17:25:48.999Z,87.20
2018-09-05T17:28:19.569Z,88.60
2018-09-05T17:30:50.064Z,89.60
2018-09-05T17:35:50.237Z,90.80
2018-09-05T17:38:20.759Z,91.50
2018-09-05T17:40:50.856Z,92.00
2018-09-05T17:43:21.252Z,92.40
2018-09-05T17:45:51.661Z,92.50
2018-09-05T17:48:22.253Z,93.50
2018-09-05T17:50:52.635Z,94.10
2018-09-05T17:53:23.061Z,94.50
2018-09-05T17:55:53.583Z,95.10
2018-09-05T17:58:23.957Z,95.40
2018-09-05T18:00:54.470Z,95.80
2018-09-05T18:03:25.035Z,96.00
2018-09-05T18:05:55.408Z,96.20
2018-09-05T18:08:25.972Z,96.50
2018-09-05T18:10:56.364Z,96.80
2018-09-05T18:15:56.417Z,97.40
2018-09-05T18:18:27.106Z,97.60
2018-09-05T18:21:07.121Z,98.00
2018-09-05T18:23:37.671Z,98.00
2018-09-05T18:26:08.044Z,98.30
2018-09-05T18:28:38.300Z,98.80
2018-09-05T18:31:08.869Z,99.40
2018-09-05T18:33:39.309Z,99.90
2018-09-05T18:36:09.865Z,99.90
2018-09-05T18:38:43.019Z,99.90
2018-09-05T18:41:15.115Z,99.90
2018-09-05T18:43:50.994Z,99.90
2018-09-05T18:46:28.582Z,99.90
2018-09-05T18:48:59.086Z,99.90
2018-09-05T18:54:02.035Z,99.90
2018-09-05T18:56:38.387Z,99.90
2018-09-05T18:59:08.877Z,99.90
2018-09-05T19:04:08.691Z,99.90
2018-09-05T19:06:38.961Z,99.90
2018-09-05T19:09:11.855Z,99.90
2018-09-05T19:11:45.002Z,99.90
2018-09-05T19:14:18.393Z,99.90
2018-09-05T19:16:48.694Z,99.90
2018-09-05T19:19:19.943Z,99.90
2018-09-05T19:21:50.286Z,99.90
2018-09-05T19:24:20.807Z,99.90
2018-09-05T19:29:21.220Z,99.90
2018-09-05T19:31:51.685Z,99.90
2018-09-05T19:34:22.306Z,99.90
2018-09-05T19:36:52.867Z,99.90
2018-09-05T19:39:23.422Z,99.90
2018-09-05T19:41:54.017Z,99.90
2018-09-05T19:44:24.490Z,99.90
2018-09-05T19:46:54.992Z,99.90
2018-09-05T19:49:25.572Z,99.90
2018-09-05T19:51:56.122Z,99.90
2018-09-05T19:54:26.600Z,99.90
2018-09-05T19:56:57.077Z,99.90
2018-09-05T20:01:57.421Z,99.90
2018-09-05T20:04:27.870Z,99.90
2018-09-05T20:06:58.277Z,99.90
2018-09-05T20:11:58.754Z,99.90
2018-09-05T20:14:29.363Z,99.90
2018-09-05T20:16:59.726Z,99.90
2018-09-05T20:19:30.335Z,99.90
2018-09-05T20:22:00.926Z,99.90
2018-09-05T20:27:00.814Z,99.90
2018-09-05T20:29:31.340Z,99.90
2018-09-05T20:32:01.949Z,99.90
2018-09-05T20:34:32.372Z,99.90
2018-09-05T20:37:02.874Z,99.90
2018-09-05T20:44:32.903Z,99.90
2018-09-05T20:47:03.902Z,99.90
2018-09-05T20:49:34.417Z,99.90
2018-09-05T20:52:05.281Z,99.90
2018-09-05T20:54:35.902Z,99.90
2018-09-05T20:57:06.419Z,99.90
2018-09-05T20:59:37.103Z,99.90
2018-09-05T21:02:07.582Z,99.90
2018-09-05T21:04:38.107Z,99.90
2018-09-05T21:07:08.649Z,99.90
2018-09-05T21:09:39.110Z,99.90
2018-09-05T21:12:09.310Z,99.90
2018-09-05T21:14:39.782Z,99.90
2018-09-05T21:17:10.315Z,99.90
2018-09-05T21:22:10.155Z,99.90
2018-09-05T21:24:40.693Z,99.90
2018-09-05T21:27:11.243Z,99.90
2018-09-05T21:29:41.793Z,99.90
2018-09-05T21:32:12.306Z,99.90
2018-09-05T21:34:42.862Z,99.90
2018-09-05T21:37:13.347Z,99.90
2018-09-05T21:39:44.008Z,99.90
2018-09-05T21:42:14.465Z,99.90
2018-09-05T21:44:44.942Z,99.90
2018-09-05T21:47:15.362Z,99.90
2018-09-05T21:49:45.694Z,99.90
2018-09-05T21:52:17.026Z,99.90
2018-09-05T21:54:47.573Z,99.90
2018-09-05T21:57:18.210Z,99.90
2018-09-05T21:59:48.834Z,99.90
2018-09-05T22:02:19.023Z,99.90
2018-09-05T22:04:49.471Z,99.90
2018-09-05T22:07:20.174Z,99.90
2018-09-05T22:12:20.296Z,99.90
2018-09-05T22:14:50.673Z,99.90
2018-09-05T22:17:21.313Z,99.90
2018-09-05T22:19:51.769Z,99.90
2018-09-05T22:22:22.151Z,99.90
2018-09-05T22:24:52.690Z,99.90
2018-09-05T22:27:23.146Z,99.90
2018-09-05T22:29:53.741Z,99.90
2018-09-05T22:32:24.067Z,99.90
2018-09-05T22:34:54.804Z,99.90
2018-09-05T22:37:25.540Z,99.90
2018-09-05T22:39:56.098Z,99.90
2018-09-05T22:42:26.486Z,99.90
2018-09-05T22:45:07.557Z,99.90
2018-09-05T22:47:52.219Z,99.90
2018-09-05T22:51:41.193Z,99.90
2018-09-05T22:54:32.006Z,99.90
2018-09-05T22:57:18.184Z,99.90
2018-09-05T23:02:05.931Z,99.90
2018-09-05T23:04:46.903Z,99.90
2018-09-05T23:17:22.865Z,99.90
2018-09-05T23:22:03.604Z,99.90
2018-09-05T23:24:34.118Z,99.90
2018-09-05T23:27:04.771Z,99.90
2018-09-05T23:29:35.409Z,99.90
2018-09-05T23:32:06.074Z,99.90
2018-09-05T23:34:36.434Z,99.90
2018-09-05T23:37:06.981Z,99.90
2018-09-05T23:39:37.594Z,99.90
2018-09-05T23:42:08.150Z,99.90
2018-09-05T23:44:38.658Z,99.90
2018-09-05T23:47:09.129Z,99.90
2018-09-05T23:49:39.606Z,99.90
2018-09-05T23:52:09.997Z,99.90
2018-09-05T23:54:40.566Z,99.90
2018-09-05T23:57:11.149Z,99.90
2018-09-05T23:59:41.637Z,99.90
